Time;durP1;ratioP1;P1;durP2;ratioP2;P2;SDS_P1;SDS_P2;PMS_P1;PMS_P2;Temp;Humidity;BMP_temperature;BMP_pressure;BME280_temperature;BME280_humidity;BME280_pressure;Samples;Min_cycle;Max_cycle;Signal;HPM_P1;HPM_P2
2023/01/30 00:01:16;;;;;;;13.05;8.90;;;0.90;38.10;;;;;;4997245;28;20217;-80
2023/01/30 00:03:46;;;;;;;14.57;9.32;;;0.90;60.40;;;;;;4994944;28;20230;-80
2023/01/30 00:06:14;;;;;;;14.35;9.10;;;0.90;96.20;;;;;;4994301;28;20226;-81
2023/01/30 00:08:43;;;;;;;11.48;8.85;;;0.90;99.90;;;;;;4996614;28;20276;-80
2023/01/30 00:11:13;;;;;;;15.43;9.43;;;0.90;99.90;;;;;;5001173;28;20281;-81
2023/01/30 00:13:43;;;;;;;12.07;8.80;;;0.90;67.40;;;;;;4998906;28;20215;-80
2023/01/30 00:16:12;;;;;;;14.43;9.32;;;0.80;99.90;;;;;;4997172;28;20237;-79
2023/01/30 00:18:41;;;;;;;13.95;8.70;;;0.90;99.90;;;;;;4992825;28;20286;-80
2023/01/30 00:21:13;;;;;;;11.65;7.95;;;0.80;99.90;;;;;;5000561;28;20205;-80
2023/01/30 00:23:41;;;;;;;11.57;8.52;;;0.90;46.60;;;;;;4996555;28;20710;-81
2023/01/30 00:26:10;;;;;;;13.32;8.65;;;0.80;99.90;;;;;;4996465;28;20222;-80
2023/01/30 00:28:39;;;;;;;13.00;9.40;;;0.80;96.50;;;;;;4997146;28;20222;-80
2023/01/30 00:31:08;;;;;;;13.02;8.60;;;0.80;99.90;;;;;;5000136;28;20655;-81
2023/01/30 00:33:38;;;;;;;10.02;7.90;;;0.90;99.90;;;;;;4998066;28;20198;-81
2023/01/30 00:36:07;;;;;;;12.00;8.70;;;0.80;90.20;;;;;;4995094;28;20305;-79
2023/01/30 00:38:37;;;;;;;12.32;8.20;;;0.80;99.90;;;;;;4993019;28;20205;-79
2023/01/30 00:41:05;;;;;;;10.75;7.78;;;0.80;99.90;;;;;;4996949;28;20213;-80
2023/01/30 00:49:11;;;;;;;9.88;7.78;;;0.70;99.90;;;;;;4977250;28;20325;-80
2023/01/30 00:51:39;;;;;;;10.10;8.60;;;0.70;99.90;;;;;;4975604;28;20284;-80
2023/01/30 00:54:09;;;;;;;12.07;8.93;;;0.80;99.90;;;;;;4979615;28;20263;-81
2023/01/30 00:56:37;;;;;;;10.60;9.50;;;0.70;99.90;;;;;;4987919;28;20887;-80
2023/01/30 00:59:05;;;;;;;12.30;9.77;;;0.70;99.90;;;;;;4988364;28;20203;-79
2023/01/30 01:01:33;;;;;;;13.10;9.27;;;0.70;99.90;;;;;;4988747;28;20210;-78
2023/01/30 01:04:01;;;;;;;12.80;8.38;;;0.70;99.90;;;;;;4995751;28;20207;-78
2023/01/30 01:06:30;;;;;;;11.05;7.32;;;0.70;99.90;;;;;;4994143;28;20223;-80
2023/01/30 01:08:58;;;;;;;13.23;8.52;;;0.80;99.90;;;;;;4995947;28;20316;-79
2023/01/30 01:11:27;;;;;;;13.18;8.20;;;0.90;99.90;;;;;;4995701;28;20207;-78
2023/01/30 01:13:57;;;;;;;11.25;7.95;;;0.80;19.30;;;;;;4994887;28;20194;-78
2023/01/30 01:16:26;;;;;;;14.30;9.00;;;0.80;87.80;;;;;;4996863;28;20645;-79
2023/01/30 01:18:55;;;;;;;12.80;8.07;;;0.70;99.90;;;;;;4999047;28;20206;-78
2023/01/30 01:21:23;;;;;;;11.60;8.20;;;0.60;99.90;;;;;;4999093;28;20694;-78
2023/01/30 01:23:52;;;;;;;12.13;8.55;;;0.60;99.90;;;;;;4995715;28;20253;-79
2023/01/30 01:26:21;;;;;;;11.77;8.02;;;0.60;99.90;;;;;;5000849;28;20261;-79
2023/01/30 01:28:54;;;;;;;13.02;8.43;;;0.50;99.90;;;;;;4995462;28;20707;-80
2023/01/30 01:31:24;;;;;;;11.80;8.80;;;0.50;99.90;;;;;;4990772;28;20215;-80
2023/01/30 01:33:52;;;;;;;9.18;7.65;;;0.60;99.90;;;;;;4990285;28;20958;-79
2023/01/30 01:36:20;;;;;;;10.40;7.28;;;0.50;99.60;;;;;;4994653;28;20309;-79
2023/01/30 01:39:08;;;;;;;10.85;8.48;;;0.50;99.90;;;;;;4995189;28;20206;-78
2023/01/30 01:41:36;;;;;;;15.10;8.65;;;0.60;99.90;;;;;;4998126;28;20217;-78
2023/01/30 01:44:08;;;;;;;11.63;9.05;;;0.70;20.10;;;;;;4993468;28;20207;-79
2023/01/30 01:46:40;;;;;;;10.30;8.13;;;0.60;33.80;;;;;;4989659;28;20237;-80
2023/01/30 01:49:14;;;;;;;10.40;8.45;;;0.50;49.60;;;;;;4997390;28;20226;-78
2023/01/30 01:51:49;;;;;;;13.85;8.43;;;0.50;99.90;;;;;;4995210;28;20198;-78
2023/01/30 01:54:22;;;;;;;11.77;8.45;;;0.50;8.60;;;;;;4994434;28;20209;-79
2023/01/30 01:56:51;;;;;;;11.18;8.88;;;0.50;93.80;;;;;;4988724;28;20316;-80
2023/01/30 01:59:24;;;;;;;12.43;9.32;;;0.60;58.10;;;;;;4990134;28;20681;-79
2023/01/30 02:01:56;;;;;;;13.73;9.45;;;0.50;1.00;;;;;;4984314;28;20199;-79
2023/01/30 02:07:09;;;;;;;11.43;8.27;;;0.40;99.90;;;;;;4989374;28;20246;-78
2023/01/30 02:09:37;;;;;;;14.18;10.02;;;0.30;99.90;;;;;;4996305;28;20704;-78
2023/01/30 02:12:06;;;;;;;10.50;7.75;;;0.40;99.90;;;;;;5000789;28;20202;-79
2023/01/30 02:14:37;;;;;;;11.23;8.63;;;0.40;98.90;;;;;;4993973;28;20218;-79
2023/01/30 02:17:05;;;;;;;12.27;9.18;;;0.40;46.60;;;;;;4997200;28;20234;-79
2023/01/30 02:19:42;;;;;;;10.93;7.65;;;0.50;46.60;;;;;;4992532;28;20921;-79
2023/01/30 02:22:34;;;;;;;9.98;7.10;;;0.40;81.60;;;;;;4997488;28;20201;-80
2023/01/30 02:25:25;;;;;;;10.00;7.93;;;0.40;61.20;;;;;;4991735;28;20361;-77
2023/01/30 02:28:41;;;;;;;13.10;8.80;;;0.30;99.90;;;;;;4998383;28;20299;-80
2023/01/30 02:31:27;;;;;;;11.13;8.98;;;0.20;99.90;;;;;;4998537;28;20206;-79
2023/01/30 02:34:07;;;;;;;16.00;9.85;;;0.40;24.30;;;;;;4996336;28;20211;-79
2023/01/30 02:36:46;;;;;;;14.68;9.50;;;0.40;1.00;;;;;;4999543;28;20296;-80
2023/01/30 02:39:26;;;;;;;14.80;9.35;;;0.50;36.80;;;;;;4995087;28;20817;-78
2023/01/30 02:42:05;;;;;;;13.68;9.52;;;0.40;5.60;;;;;;4996865;28;20206;-79
2023/01/30 02:44:43;;;;;;;12.45;8.30;;;0.50;1.00;;;;;;4996010;28;20202;-79
2023/01/30 02:47:17;;;;;;;12.32;8.05;;;0.40;33.20;;;;;;4991766;28;20311;-79
2023/01/30 02:49:49;;;;;;;13.73;9.60;;;0.40;99.90;;;;;;4996941;28;20789;-79
2023/01/30 02:52:17;;;;;;;11.93;8.95;;;0.40;3.00;;;;;;4992162;28;20207;-77
2023/01/30 02:54:45;;;;;;;9.73;7.68;;;0.50;99.90;;;;;;4996642;28;20203;-78
2023/01/30 02:57:19;;;;;;;13.13;9.43;;;0.40;36.70;;;;;;4996151;28;20230;-79
2023/01/30 02:59:50;;;;;;;12.80;9.55;;;0.30;86.30;;;;;;5003966;28;20197;-79
2023/01/30 03:02:42;;;;;;;12.20;8.95;;;0.40;32.20;;;;;;4997594;28;20212;-79
2023/01/30 03:05:28;;;;;;;11.60;9.10;;;0.50;99.90;;;;;;5002736;28;20208;-79
2023/01/30 03:08:09;;;;;;;15.70;10.10;;;0.40;1.00;;;;;;5000566;28;20202;-77
2023/01/30 03:10:43;;;;;;;13.55;9.15;;;0.30;1.00;;;;;;5000433;28;20592;-78
2023/01/30 03:13:19;;;;;;;10.70;9.23;;;0.10;99.90;;;;;;4999650;28;20201;-78
2023/01/30 03:15:52;;;;;;;11.38;10.15;;;0.30;99.90;;;;;;4999217;28;20221;-77
2023/01/30 03:18:22;;;;;;;14.65;8.43;;;0.30;82.20;;;;;;4999049;28;20207;-78
2023/01/30 03:20:51;;;;;;;13.43;8.80;;;0.30;33.80;;;;;;4999383;28;20213;-78
2023/01/30 03:23:19;;;;;;;11.50;8.55;;;0.20;91.20;;;;;;4995533;28;20207;-78
2023/01/30 03:25:48;;;;;;;9.88;8.02;;;0.20;18.50;;;;;;4996777;28;20223;-78
2023/01/30 03:28:20;;;;;;;15.65;8.80;;;0.20;3.20;;;;;;4994287;28;20206;-78
2023/01/30 03:30:48;;;;;;;10.50;7.57;;;0.20;99.90;;;;;;4997395;28;20621;-79
2023/01/30 03:33:17;;;;;;;12.38;7.75;;;0.30;86.10;;;;;;4996304;28;20297;-79
2023/01/30 03:35:47;;;;;;;15.68;7.72;;;0.30;1.00;;;;;;4996051;28;20234;-76
2023/01/30 03:38:15;;;;;;;12.90;7.78;;;0.30;1.00;;;;;;4994562;28;20669;-78
2023/01/30 03:40:44;;;;;;;9.65;8.10;;;0.30;1.00;;;;;;4996057;28;20214;-78
2023/01/30 03:43:13;;;;;;;11.98;7.30;;;0.40;2.70;;;;;;4996884;28;20236;-79
2023/01/30 03:45:41;;;;;;;11.02;7.65;;;0.30;1.00;;;;;;4993934;28;20317;-79
2023/01/30 03:48:09;;;;;;;9.65;7.43;;;0.40;38.90;;;;;;4997767;28;20209;-79
2023/01/30 03:50:38;;;;;;;10.40;7.50;;;0.50;6.90;;;;;;4996990;28;20211;-79
2023/01/30 03:53:08;;;;;;;10.15;6.82;;;0.50;1.00;;;;;;4991035;28;20210;-79
2023/01/30 03:55:36;;;;;;;12.50;8.60;;;0.50;21.30;;;;;;4997213;28;20222;-78
2023/01/30 03:58:05;;;;;;;8.60;7.47;;;0.50;1.00;;;;;;4998558;28;20218;-78
2023/01/30 04:00:33;;;;;;;10.43;6.60;;;0.60;4.90;;;;;;4993473;28;20226;-77
2023/01/30 04:03:01;;;;;;;10.40;7.65;;;0.60;1.00;;;;;;4989764;28;20191;-78
2023/01/30 04:05:30;;;;;;;10.63;7.40;;;0.60;24.00;;;;;;5029794;28;20822;-79
2023/01/30 04:07:59;;;;;;;9.65;6.70;;;0.40;1.00;;;;;;4996640;28;20802;-79
2023/01/30 04:10:29;;;;;;;10.23;7.22;;;0.30;99.90;;;;;;4996161;28;20571;-80
2023/01/30 04:12:57;;;;;;;7.40;6.65;;;0.40;99.90;;;;;;4996692;28;20353;-80
2023/01/30 04:15:25;;;;;;;12.20;7.03;;;0.40;99.90;;;;;;4994745;28;20233;-80
2023/01/30 04:17:54;;;;;;;10.18;7.50;;;0.40;99.90;;;;;;4993191;28;21177;-79
2023/01/30 04:20:22;;;;;;;8.43;6.60;;;0.40;99.90;;;;;;4989981;28;20196;-80
2023/01/30 04:22:50;;;;;;;7.32;6.60;;;0.50;99.90;;;;;;4993050;28;20198;-79
2023/01/30 04:25:19;;;;;;;9.90;7.05;;;0.50;99.90;;;;;;4992705;28;21192;-81
2023/01/30 04:27:49;;;;;;;12.13;7.50;;;0.50;99.90;;;;;;4996220;28;20229;-79
2023/01/30 04:30:18;;;;;;;7.57;6.68;;;0.50;99.90;;;;;;4992655;28;20217;-77
2023/01/30 04:32:46;;;;;;;9.70;6.20;;;0.50;91.30;;;;;;4990168;28;20284;-80
2023/01/30 04:35:15;;;;;;;11.77;7.55;;;0.40;99.90;;;;;;4994534;28;20217;-80
2023/01/30 04:37:44;;;;;;;12.02;7.40;;;0.40;99.90;;;;;;4993736;28;20202;-81
2023/01/30 04:40:12;;;;;;;6.85;6.15;;;0.40;99.90;;;;;;4994262;28;20685;-80
2023/01/30 04:42:41;;;;;;;8.50;7.60;;;0.40;99.90;;;;;;4993372;28;20203;-80
2023/01/30 04:45:11;;;;;;;11.73;7.60;;;0.40;99.90;;;;;;4993423;28;20199;-79
2023/01/30 04:47:40;;;;;;;7.50;6.32;;;0.40;99.90;;;;;;4992581;28;20202;-78
2023/01/30 04:50:10;;;;;;;9.65;7.53;;;0.50;99.90;;;;;;4998108;28;20211;-79
2023/01/30 04:52:38;;;;;;;9.23;6.60;;;0.60;88.80;;;;;;5003634;28;20201;-79
2023/01/30 04:55:07;;;;;;;10.27;7.20;;;0.70;81.90;;;;;;5001857;28;20293;-80
2023/01/30 04:57:36;;;;;;;11.35;7.68;;;0.80;26.60;;;;;;4999920;28;20210;-78
2023/01/30 05:00:07;;;;;;;10.25;8.68;;;0.80;1.00;;;;;;5003924;28;20494;-79
2023/01/30 05:02:37;;;;;;;10.90;8.05;;;0.70;19.50;;;;;;5010225;28;20205;-79
2023/01/30 05:05:09;;;;;;;9.55;8.18;;;0.80;1.00;;;;;;5004791;28;21111;-79
2023/01/30 05:07:37;;;;;;;11.20;6.65;;;0.70;1.00;;;;;;5006079;28;20208;-80
2023/01/30 05:10:06;;;;;;;8.50;7.55;;;0.70;1.00;;;;;;5000742;28;20211;-81
2023/01/30 05:12:36;;;;;;;9.75;7.40;;;0.80;1.00;;;;;;5003501;28;20717;-80
2023/01/30 05:15:05;;;;;;;7.90;6.03;;;0.80;1.00;;;;;;5000901;28;20198;-80
2023/01/30 05:17:34;;;;;;;10.07;7.32;;;0.80;1.00;;;;;;4998756;28;20261;-79
2023/01/30 05:20:05;;;;;;;10.50;6.93;;;0.70;1.00;;;;;;4998891;28;20208;-79
2023/01/30 05:22:33;;;;;;;8.55;6.80;;;0.70;1.00;;;;;;4999962;28;20608;-79
2023/01/30 05:25:01;;;;;;;10.98;8.38;;;0.70;1.00;;;;;;4998348;28;20646;-78
2023/01/30 05:27:30;;;;;;;8.80;7.40;;;0.80;1.00;;;;;;5001042;28;20226;-79
2023/01/30 05:29:58;;;;;;;8.05;5.75;;;0.80;99.90;;;;;;5001147;28;20222;-78
2023/01/30 05:32:29;;;;;;;8.25;6.75;;;0.80;99.90;;;;;;4998698;28;20259;-77
2023/01/30 05:34:57;;;;;;;8.40;6.15;;;0.80;4.90;;;;;;5002902;28;20206;-82
2023/01/30 05:37:27;;;;;;;7.97;7.15;;;0.70;99.30;;;;;;4998644;28;20233;-82
2023/01/30 05:39:55;;;;;;;9.38;6.53;;;0.60;99.90;;;;;;5000344;28;20226;-82
2023/01/30 05:42:24;;;;;;;8.20;6.72;;;0.60;45.10;;;;;;5004555;28;20209;-82
2023/01/30 05:44:52;;;;;;;8.55;6.38;;;0.70;24.90;;;;;;5004242;28;22275;-82
2023/01/30 05:47:20;;;;;;;12.10;8.32;;;0.70;48.80;;;;;;4997501;28;20230;-81
2023/01/30 05:49:48;;;;;;;8.65;7.65;;;0.70;23.10;;;;;;5001759;28;20198;-83
2023/01/30 05:52:16;;;;;;;8.35;7.15;;;0.70;94.10;;;;;;5004628;28;20205;-81
2023/01/30 05:54:46;;;;;;;9.40;6.57;;;0.80;6.00;;;;;;5002672;28;20206;-82
2023/01/30 05:57:15;;;;;;;11.27;6.78;;;0.90;1.00;;;;;;5000078;28;20226;-82
2023/01/30 05:59:43;;;;;;;8.35;6.75;;;0.90;1.00;;;;;;4996374;28;20198;-80
2023/01/30 06:02:12;;;;;;;9.18;7.38;;;0.80;1.00;;;;;;4998732;28;20214;-79
2023/01/30 06:04:40;;;;;;;7.38;6.20;;;0.70;1.00;;;;;;5000619;28;20214;-80
2023/01/30 06:07:09;;;;;;;8.07;6.43;;;0.70;1.00;;;;;;5008565;28;20231;-79
2023/01/30 06:09:38;;;;;;;10.32;7.40;;;0.70;1.00;;;;;;5006656;28;20281;-82
2023/01/30 06:12:08;;;;;;;7.95;6.40;;;0.70;1.00;;;;;;5006751;28;20241;-82
2023/01/30 06:14:37;;;;;;;9.05;7.70;;;0.60;1.00;;;;;;5001615;28;20209;-83
2023/01/30 06:17:06;;;;;;;8.00;6.63;;;0.70;1.00;;;;;;4999707;28;20242;-79
2023/01/30 06:19:35;;;;;;;9.05;6.72;;;0.60;1.00;;;;;;5004251;28;20202;-83
2023/01/30 06:22:03;;;;;;;9.55;7.57;;;0.60;15.90;;;;;;4998549;28;20207;-82
2023/01/30 06:24:31;;;;;;;8.98;6.85;;;0.60;99.90;;;;;;5000739;28;20198;-83
2023/01/30 06:27:00;;;;;;;11.55;7.45;;;0.60;99.90;;;;;;4995086;28;20719;-83
2023/01/30 06:29:30;;;;;;;8.73;7.18;;;0.50;99.90;;;;;;5003621;28;20209;-83
2023/01/30 06:31:58;;;;;;;12.40;7.72;;;0.50;99.90;;;;;;5002069;28;20220;-83
2023/01/30 06:34:27;;;;;;;7.25;6.18;;;0.50;99.90;;;;;;5006894;28;20209;-82
2023/01/30 06:36:55;;;;;;;9.30;7.18;;;0.50;99.90;;;;;;5003648;28;20225;-83
2023/01/30 06:39:24;;;;;;;10.38;6.70;;;0.50;99.90;;;;;;5003040;28;20198;-81
2023/01/30 06:41:53;;;;;;;8.00;6.40;;;0.50;99.90;;;;;;5002795;28;20194;-83
2023/01/30 06:44:22;;;;;;;7.25;6.28;;;0.60;99.90;;;;;;5000757;28;21947;-83
2023/01/30 06:46:52;;;;;;;8.52;5.70;;;0.60;99.90;;;;;;5002941;28;20226;-83
2023/01/30 06:49:21;;;;;;;8.85;7.65;;;0.50;99.90;;;;;;5000063;28;20237;-82
2023/01/30 06:51:50;;;;;;;9.07;6.60;;;0.50;99.90;;;;;;5000721;28;20213;-83
2023/01/30 06:54:18;;;;;;;10.13;6.38;;;0.50;99.90;;;;;;5000531;28;20221;-83
2023/01/30 06:56:48;;;;;;;9.15;6.80;;;0.50;99.90;;;;;;5002981;28;20218;-83
2023/01/30 06:59:17;;;;;;;8.23;6.50;;;0.50;99.90;;;;;;5003194;28;20222;-83
2023/01/30 07:01:45;;;;;;;10.32;6.82;;;0.50;99.90;;;;;;5007584;28;20266;-83
2023/01/30 07:04:16;;;;;;;9.93;6.55;;;0.50;99.90;;;;;;5001348;28;20261;-83
2023/01/30 07:06:45;;;;;;;7.47;6.30;;;0.60;99.90;;;;;;5008683;28;20229;-83
2023/01/30 07:09:15;;;;;;;8.13;6.47;;;0.50;99.90;;;;;;5010240;28;20233;-83
2023/01/30 07:11:43;;;;;;;8.88;6.65;;;0.60;99.90;;;;;;4999862;28;20565;-83
2023/01/30 07:14:13;;;;;;;8.38;7.28;;;0.60;99.90;;;;;;5006418;28;20234;-82
2023/01/30 07:16:42;;;;;;;8.77;6.00;;;0.70;99.90;;;;;;4995654;28;20314;-82
2023/01/30 07:19:11;;;;;;;9.13;6.32;;;0.70;99.90;;;;;;5001924;28;20203;-83
2023/01/30 07:21:41;;;;;;;9.23;5.88;;;0.70;99.90;;;;;;5007459;28;20199;-82
2023/01/30 07:24:10;;;;;;;7.40;5.97;;;0.70;99.90;;;;;;5006299;28;20725;-82
2023/01/30 07:26:39;;;;;;;7.28;5.50;;;0.80;99.90;;;;;;5007384;28;20222;-83
2023/01/30 07:29:08;;;;;;;8.70;7.03;;;0.70;99.90;;;;;;4999380;28;20218;-82
2023/01/30 07:31:38;;;;;;;8.48;6.38;;;0.80;99.90;;;;;;5003840;28;20421;-82
2023/01/30 07:34:07;;;;;;;9.30;7.20;;;0.70;99.90;;;;;;4999704;28;20278;-82
2023/01/30 07:36:36;;;;;;;6.47;5.70;;;0.80;99.90;;;;;;5005337;28;20239;-81
2023/01/30 07:39:08;;;;;;;6.97;5.95;;;0.70;99.90;;;;;;5004814;28;20234;-83
2023/01/30 07:41:37;;;;;;;7.55;6.00;;;0.80;99.90;;;;;;4998754;28;20199;-82
2023/01/30 07:44:07;;;;;;;7.53;5.53;;;0.70;99.90;;;;;;4997141;28;20218;-82
2023/01/30 07:46:36;;;;;;;9.85;5.65;;;0.70;99.90;;;;;;4998769;28;20251;-83
2023/01/30 07:49:06;;;;;;;7.45;5.85;;;0.60;99.90;;;;;;4996212;28;20227;-83
2023/01/30 07:51:36;;;;;;;7.43;6.20;;;0.70;99.90;;;;;;4997725;28;20274;-82
2023/01/30 07:54:07;;;;;;;8.30;6.10;;;0.70;99.90;;;;;;4992222;28;20198;-82
2023/01/30 07:56:37;;;;;;;7.88;6.18;;;0.70;99.90;;;;;;4998543;28;20221;-83
2023/01/30 07:59:07;;;;;;;7.88;5.82;;;0.80;99.90;;;;;;4997074;28;20293;-82
2023/01/30 08:01:36;;;;;;;7.95;5.65;;;0.80;99.90;;;;;;4994839;28;20297;-82
2023/01/30 08:04:05;;;;;;;9.77;6.72;;;0.60;1.00;;;;;;4998550;28;20203;-83
2023/01/30 08:06:37;;;;;;;9.45;6.95;;;0.70;1.00;;;;;;4995253;28;20222;-82
2023/01/30 08:09:09;;;;;;;8.52;5.80;;;0.80;99.90;;;;;;5002202;28;20191;-83
2023/01/30 08:11:38;;;;;;;11.07;5.90;;;1.00;1.00;;;;;;5034940;28;20219;-82
2023/01/30 08:14:08;;;;;;;8.57;6.20;;;1.00;99.90;;;;;;4995548;28;20215;-81
2023/01/30 08:16:38;;;;;;;7.07;5.90;;;1.00;99.90;;;;;;5002548;28;20305;-82
2023/01/30 08:19:09;;;;;;;10.80;6.35;;;1.00;99.90;;;;;;5002425;28;20202;-82
2023/01/30 08:21:38;;;;;;;10.85;6.07;;;0.90;99.90;;;;;;5001267;28;20203;-82
2023/01/30 08:24:11;;;;;;;7.88;5.72;;;1.00;1.00;;;;;;5004199;28;20191;-83
2023/01/30 08:26:41;;;;;;;8.15;5.57;;;1.10;99.90;;;;;;5002056;28;20229;-82
2023/01/30 08:29:11;;;;;;;7.18;5.60;;;1.10;99.90;;;;;;5000886;28;20999;-82
2023/01/30 08:31:40;;;;;;;6.80;5.18;;;1.10;99.90;;;;;;4998655;28;20210;-83
2023/01/30 08:34:10;;;;;;;8.18;6.20;;;1.20;99.90;;;;;;5000062;28;20199;-83
2023/01/30 08:36:40;;;;;;;5.68;4.35;;;1.20;1.00;;;;;;4998364;28;20226;-83
2023/01/30 08:39:11;;;;;;;6.72;4.50;;;1.30;1.00;;;;;;4998685;28;20666;-83
2023/01/30 08:41:42;;;;;;;5.40;4.00;;;1.30;38.00;;;;;;5000649;28;20191;-82
2023/01/30 08:44:12;;;;;;;6.50;5.07;;;1.30;45.30;;;;;;5004215;28;20203;-82
2023/01/30 08:46:42;;;;;;;7.22;5.05;;;1.30;1.70;;;;;;5000714;28;20237;-81
2023/01/30 08:49:12;;;;;;;4.50;4.10;;;1.50;99.90;;;;;;4998906;28;20214;-83
2023/01/30 08:51:41;;;;;;;5.55;4.72;;;1.60;1.00;;;;;;4998425;28;20234;-83
2023/01/30 08:54:12;;;;;;;6.68;5.97;;;1.70;1.00;;;;;;4999318;28;20982;-83
2023/01/30 08:56:42;;;;;;;6.75;5.45;;;1.80;1.00;;;;;;4999576;28;20226;-82
2023/01/30 08:59:12;;;;;;;7.88;4.78;;;2.00;1.00;;;;;;5003557;28;20224;-82
2023/01/30 09:01:41;;;;;;;8.60;4.80;;;2.20;99.90;;;;;;5009299;28;20207;-83
2023/01/30 09:04:10;;;;;;;7.78;5.63;;;2.20;99.90;;;;;;5005373;28;20236;-83
2023/01/30 09:06:41;;;;;;;8.13;4.80;;;2.40;99.90;;;;;;4999991;28;20664;-83
2023/01/30 09:09:13;;;;;;;5.57;5.05;;;2.60;99.90;;;;;;5006832;28;20201;-82
2023/01/30 09:11:43;;;;;;;7.93;5.75;;;2.40;99.90;;;;;;5000154;28;20213;-82
2023/01/30 09:14:15;;;;;;;7.35;4.88;;;2.30;99.90;;;;;;5004732;28;20198;-83
2023/01/30 09:16:45;;;;;;;6.28;4.90;;;2.20;99.90;;;;;;5006723;28;20249;-83
2023/01/30 09:19:15;;;;;;;6.68;4.97;;;2.20;99.90;;;;;;5003591;28;20207;-83
2023/01/30 09:21:45;;;;;;;8.80;5.35;;;2.50;99.90;;;;;;5001083;28;20208;-83
2023/01/30 09:24:17;;;;;;;6.57;5.13;;;2.70;25.50;;;;;;5001724;28;20298;-83
2023/01/30 09:26:47;;;;;;;6.03;5.25;;;2.60;99.90;;;;;;5003027;28;20284;-82
2023/01/30 09:29:16;;;;;;;7.88;5.82;;;2.80;59.50;;;;;;5003220;28;20214;-83
2023/01/30 09:31:46;;;;;;;6.25;4.85;;;2.90;1.00;;;;;;5001601;28;20693;-83
2023/01/30 09:34:16;;;;;;;10.48;5.03;;;3.20;1.00;;;;;;5000131;28;20205;-83
2023/01/30 09:36:45;;;;;;;5.95;4.00;;;2.90;1.00;;;;;;5000279;28;20240;-83
2023/01/30 09:39:16;;;;;;;4.38;3.97;;;2.80;1.00;;;;;;4998350;28;20213;-83
2023/01/30 09:42:00;;;;;;;7.40;4.43;;;2.70;77.10;;;;;;5008157;28;20208;-83
2023/01/30 09:44:52;;;;;;;6.18;4.10;;;2.40;99.90;;;;;;5006239;28;20212;-83
2023/01/30 09:47:33;;;;;;;5.57;4.20;;;2.50;99.90;;;;;;4999462;28;20225;-80
2023/01/30 09:50:13;;;;;;;7.72;5.93;;;2.60;99.90;;;;;;4999664;28;20211;-83
2023/01/30 09:52:55;;;;;;;5.03;4.50;;;2.60;99.90;;;;;;5001294;28;20219;-79
2023/01/30 09:55:28;;;;;;;4.70;4.28;;;2.60;99.90;;;;;;5000655;28;20599;-83
2023/01/30 09:58:00;;;;;;;4.70;3.90;;;2.40;99.90;;;;;;4999358;28;20227;-83
2023/01/30 10:00:35;;;;;;;8.45;4.72;;;2.30;99.90;;;;;;5004279;28;20290;-83
2023/01/30 10:03:11;;;;;;;5.13;4.65;;;2.40;99.90;;;;;;5005014;28;20487;-80
2023/01/30 10:05:44;;;;;;;4.47;3.90;;;2.40;99.90;;;;;;5008609;28;20235;-83
2023/01/30 10:08:32;;;;;;;7.30;4.38;;;2.50;99.90;;;;;;5008339;28;20207;-83
2023/01/30 10:11:12;;;;;;;4.57;4.13;;;2.50;99.90;;;;;;5004081;28;20699;-82
2023/01/30 10:14:10;;;;;;;4.93;4.28;;;2.50;99.90;;;;;;5003856;28;20232;-83
2023/01/30 10:16:48;;;;;;;4.07;3.65;;;2.60;99.90;;;;;;5005135;28;20826;-82
2023/01/30 10:19:45;;;;;;;3.20;2.83;;;2.70;99.90;;;;;;5002819;28;20199;-82
2023/01/30 10:22:29;;;;;;;4.88;3.42;;;2.80;1.00;;;;;;5000881;28;20767;-80
2023/01/30 10:25:11;;;;;;;4.85;2.78;;;2.70;99.90;;;;;;4997717;28;20196;-82
2023/01/30 10:27:51;;;;;;;2.60;2.40;;;2.80;99.90;;;;;;5001913;28;20234;-80
2023/01/30 10:30:21;;;;;;;3.80;2.30;;;2.90;1.00;;;;;;4997367;28;20634;-82
2023/01/30 10:32:57;;;;;;;7.15;2.60;;;3.00;99.90;;;;;;4997204;28;20217;-82
2023/01/30 10:35:32;;;;;;;2.72;2.30;;;3.00;1.00;;;;;;5000139;28;20203;-81
2023/01/30 10:38:11;;;;;;;3.53;2.97;;;3.10;99.90;;;;;;4998364;28;20256;-82
2023/01/30 10:40:43;;;;;;;2.35;2.15;;;3.10;1.00;;;;;;4998328;28;20197;-81
2023/01/30 10:43:21;;;;;;;2.95;1.92;;;3.10;1.00;;;;;;5000497;28;20196;-82
2023/01/30 10:46:01;;;;;;;2.20;2.00;;;3.10;1.00;;;;;;4999220;28;20223;-80
2023/01/30 10:48:49;;;;;;;1.92;1.80;;;3.20;99.90;;;;;;5003258;28;21053;-82
2023/01/30 10:51:28;;;;;;;2.38;2.00;;;3.10;99.90;;;;;;5003123;28;20828;-81
2023/01/30 10:54:01;;;;;;;2.00;1.90;;;3.20;99.90;;;;;;5000119;28;20786;-82
2023/01/30 10:56:39;;;;;;;2.50;2.00;;;3.20;1.00;;;;;;5002628;28;20253;-80
2023/01/30 10:59:22;;;;;;;2.90;2.20;;;3.20;1.00;;;;;;5009764;28;20295;-81
2023/01/30 11:02:00;;;;;;;2.97;2.78;;;3.20;1.00;;;;;;5011241;28;20254;-81
2023/01/30 11:04:32;;;;;;;3.20;2.90;;;3.10;1.00;;;;;;5009251;28;20202;-80
2023/01/30 11:07:01;;;;;;;3.75;3.40;;;3.10;1.00;;;;;;5003061;28;20288;-81
2023/01/30 11:09:41;;;;;;;5.20;3.38;;;3.10;99.90;;;;;;5005764;28;20217;-81
2023/01/30 11:12:10;;;;;;;4.20;3.80;;;3.10;72.40;;;;;;5006112;28;20234;-81
2023/01/30 11:14:55;;;;;;;3.22;2.92;;;3.10;81.60;;;;;;5004906;28;20221;-79
2023/01/30 11:17:30;;;;;;;3.80;3.45;;;3.00;99.90;;;;;;5003728;28;20216;-81
2023/01/30 11:20:04;;;;;;;4.68;4.13;;;3.20;48.30;;;;;;5002844;28;20818;-82
2023/01/30 11:22:36;;;;;;;4.82;3.60;;;3.20;99.90;;;;;;5003626;28;20237;-82
2023/01/30 11:25:10;;;;;;;3.72;3.33;;;3.10;1.00;;;;;;5002677;28;20207;-81
2023/01/30 11:27:43;;;;;;;4.40;4.00;;;3.00;1.00;;;;;;5000637;28;21051;-82
2023/01/30 11:30:18;;;;;;;5.25;4.07;;;3.10;99.90;;;;;;5004357;28;20195;-82
2023/01/30 11:32:49;;;;;;;4.05;3.28;;;3.10;99.90;;;;;;5001801;28;20207;-81
2023/01/30 11:35:27;;;;;;;4.03;3.28;;;3.00;99.90;;;;;;5004481;28;20225;-82
2023/01/30 11:38:12;;;;;;;4.45;2.88;;;3.00;1.00;;;;;;5008008;28;20254;-81
2023/01/30 11:40:40;;;;;;;3.05;2.63;;;3.00;1.00;;;;;;5000672;28;20198;-82
2023/01/30 11:43:13;;;;;;;2.85;2.50;;;2.90;99.90;;;;;;4995684;28;20312;-82
2023/01/30 11:45:46;;;;;;;3.30;2.67;;;2.80;99.90;;;;;;4997545;28;20223;-82
2023/01/30 11:48:18;;;;;;;2.75;2.47;;;2.80;99.90;;;;;;4993538;28;20196;-81
2023/01/30 11:51:07;;;;;;;4.60;3.20;;;2.90;99.90;;;;;;4992591;28;20214;-81
2023/01/30 11:53:39;;;;;;;3.17;2.63;;;2.90;99.90;;;;;;4989813;28;20232;-81
2023/01/30 11:56:15;;;;;;;3.00;2.40;;;3.10;1.10;;;;;;4991557;28;20221;-81
2023/01/30 11:58:46;;;;;;;2.83;2.53;;;3.00;99.90;;;;;;4992600;28;20601;-80
2023/01/30 12:01:17;;;;;;;3.13;2.80;;;3.10;99.90;;;;;;4999836;28;20205;-79
2023/01/30 12:03:49;;;;;;;3.67;3.00;;;2.90;34.40;;;;;;5022819;28;20185;-81
2023/01/30 12:06:28;;;;;;;4.82;3.25;;;2.80;1.00;;;;;;5007901;28;20242;-81
2023/01/30 12:08:58;;;;;;;3.30;3.00;;;2.80;1.00;;;;;;5009872;28;20714;-81
2023/01/30 12:11:29;;;;;;;3.45;3.05;;;2.90;1.00;;;;;;4991490;28;20299;-81
2023/01/30 12:14:20;;;;;;;4.40;2.83;;;2.90;99.90;;;;;;4990972;28;20838;-81
2023/01/30 12:16:57;;;;;;;3.85;3.45;;;2.90;1.00;;;;;;4989816;28;20257;-79
2023/01/30 12:19:46;;;;;;;5.40;2.75;;;3.00;1.00;;;;;;4995858;28;21251;-80
2023/01/30 12:22:23;;;;;;;3.22;2.90;;;3.00;1.00;;;;;;4988348;28;20830;-81
2023/01/30 12:24:58;;;;;;;4.65;3.45;;;2.90;1.00;;;;;;4991272;28;20189;-81
2023/01/30 12:27:47;;;;;;;4.15;2.85;;;3.00;1.00;;;;;;4989585;28;20796;-80
2023/01/30 12:30:29;;;;;;;4.45;2.85;;;3.10;99.90;;;;;;4989771;28;20228;-80
2023/01/30 12:33:02;;;;;;;4.18;2.92;;;3.00;1.00;;;;;;4991232;28;20212;-80
2023/01/30 12:36:07;;;;;;;3.63;3.10;;;2.90;99.90;;;;;;4989374;28;20236;-81
2023/01/30 12:38:55;;;;;;;3.97;2.97;;;2.90;1.00;;;;;;4971675;28;20696;-80
2023/01/30 12:41:45;;;;;;;3.65;2.90;;;2.90;1.00;;;;;;4989027;28;20279;-81
2023/01/30 12:44:28;;;;;;;3.47;3.17;;;2.90;99.90;;;;;;4992851;28;20202;-81
2023/01/30 12:47:14;;;;;;;5.00;3.22;;;2.90;1.00;;;;;;4993393;28;20250;-79
2023/01/30 12:50:02;;;;;;;4.78;2.78;;;2.90;1.00;;;;;;4988803;28;20201;-80
2023/01/30 12:52:49;;;;;;;4.25;3.65;;;3.00;99.90;;;;;;4991001;28;20207;-80
2023/01/30 12:55:34;;;;;;;4.10;2.75;;;3.10;1.00;;;;;;4991310;28;20228;-81
2023/01/30 12:58:11;;;;;;;3.45;3.15;;;3.10;13.90;;;;;;4989281;28;20298;-81
2023/01/30 13:01:04;;;;;;;4.20;3.38;;;3.10;46.00;;;;;;5002996;28;20335;-81
2023/01/30 13:03:40;;;;;;;4.93;3.15;;;3.10;36.20;;;;;;5005459;28;20215;-80
2023/01/30 13:06:26;;;;;;;4.40;3.50;;;3.20;1.00;;;;;;5004112;28;20323;-81
2023/01/30 13:09:10;;;;;;;4.38;3.30;;;3.20;1.00;;;;;;5001810;28;20199;-81
2023/01/30 13:11:47;;;;;;;6.72;4.20;;;3.10;1.00;;;;;;5008673;28;20664;-82
2023/01/30 13:14:29;;;;;;;3.92;3.53;;;3.20;1.00;;;;;;5004561;28;20242;-81
2023/01/30 13:17:18;;;;;;;5.55;3.53;;;3.10;1.00;;;;;;5006848;28;20231;-82
2023/01/30 13:19:54;;;;;;;4.20;3.38;;;3.20;99.90;;;;;;5010520;28;20360;-81
2023/01/30 13:22:30;;;;;;;6.32;3.45;;;3.10;99.90;;;;;;5010983;28;20209;-81
2023/01/30 13:25:03;;;;;;;4.38;3.83;;;3.20;99.90;;;;;;5010728;28;20752;-81
2023/01/30 13:27:37;;;;;;;5.40;3.50;;;3.20;99.90;;;;;;5005956;28;20326;-78
2023/01/30 13:30:09;;;;;;;5.80;5.00;;;3.20;1.00;;;;;;4992532;28;20205;-81
2023/01/30 13:32:41;;;;;;;4.45;3.90;;;3.20;1.00;;;;;;4997436;28;20751;-81